Time;durP1;ratioP1;P1;durP2;ratioP2;P2;SDS_P1;SDS_P2;PMS_P1;PMS_P2;Temp;Humidity;BMP_temperature;BMP_pressure;BME280_temperature;BME280_humidity;BME280_pressure;Samples;Min_cycle;Max_cycle;Signal;HPM_P1;HPM_P2
2021/01/26 00:01:22;;;;;;;9.50;6.03;;;;;;;1.24;73.22;96592.97;1723704;82;21240;-65
2021/01/26 00:03:51;;;;;;;9.83;5.75;;;;;;;1.24;72.75;96594.71;1723584;83;21216;-63
2021/01/26 00:06:19;;;;;;;11.18;5.00;;;;;;;1.24;72.89;96590.88;1723824;82;21205;-65
2021/01/26 00:08:47;;;;;;;8.20;4.92;;;;;;;1.22;73.08;96596.09;1723515;83;21185;-63
2021/01/26 00:11:16;;;;;;;6.40;4.10;;;;;;;1.30;72.91;96599.34;1723700;83;21185;-63
2021/01/26 00:13:44;;;;;;;7.58;5.45;;;;;;;1.33;72.45;96597.81;1723468;83;21710;-63
2021/01/26 00:16:12;;;;;;;6.97;4.55;;;;;;;1.33;72.55;96596.08;1723584;82;21217;-63
2021/01/26 00:18:40;;;;;;;6.50;4.20;;;;;;;1.40;72.13;96599.77;1723797;82;21216;-65
2021/01/26 00:21:09;;;;;;;6.08;4.15;;;;;;;1.42;71.92;96601.77;1723612;83;21208;-64
2021/01/26 00:23:38;;;;;;;8.68;4.33;;;;;;;1.42;71.93;96599.66;1723577;83;21587;-65
2021/01/26 00:26:06;;;;;;;6.17;4.45;;;;;;;1.44;71.87;96603.72;1723750;82;21161;-65
2021/01/26 00:28:34;;;;;;;8.83;4.05;;;;;;;1.47;71.95;96606.98;1723691;83;21161;-64
2021/01/26 00:31:02;;;;;;;4.03;3.52;;;;;;;1.43;72.21;96603.86;1723571;82;21158;-66
2021/01/26 00:33:30;;;;;;;9.80;4.20;;;;;;;1.42;72.56;96606.88;1723730;83;21166;-66
2021/01/26 00:36:00;;;;;;;6.28;3.33;;;;;;;1.42;72.68;96611.17;1723670;83;21160;-65
2021/01/26 00:38:29;;;;;;;3.85;2.98;;;;;;;1.34;73.24;96608.40;1724016;83;21176;-62
2021/01/26 00:40:57;;;;;;;6.05;4.35;;;;;;;1.38;72.70;96608.05;1723753;83;21176;-64
2021/01/26 00:43:26;;;;;;;5.90;4.35;;;;;;;1.34;72.87;96612.23;1723574;83;21129;-64
2021/01/26 00:45:55;;;;;;;5.40;4.00;;;;;;;1.31;72.79;96612.02;1723813;83;21197;-65
2021/01/26 00:48:23;;;;;;;4.00;3.25;;;;;;;1.30;72.79;96604.45;1723647;82;21181;-65
2021/01/26 00:50:51;;;;;;;4.95;2.95;;;;;;;1.32;72.61;96602.11;1723563;83;21137;-63
2021/01/26 00:53:19;;;;;;;5.53;3.92;;;;;;;1.34;72.61;96604.10;1723526;83;21161;-63
2021/01/26 00:55:51;;;;;;;4.37;3.62;;;;;;;1.30;73.04;96604.45;1722359;82;21684;-65
2021/01/26 00:58:20;;;;;;;7.08;4.37;;;;;;;1.29;73.17;96601.08;1723992;82;21242;-66
2021/01/26 01:00:48;;;;;;;6.53;3.02;;;;;;;1.31;73.06;96600.97;1723715;81;21185;-66
2021/01/26 01:03:18;;;;;;;7.90;3.90;;;;;;;1.39;72.46;96599.91;1723788;83;21141;-64
2021/01/26 01:05:46;;;;;;;6.03;3.85;;;;;;;1.46;72.40;96609.19;1723582;83;21160;-64
2021/01/26 01:08:14;;;;;;;5.58;3.10;;;;;;;1.38;72.97;96604.67;1723593;83;21209;-62
2021/01/26 01:10:43;;;;;;;3.55;2.95;;;;;;;1.37;72.96;96601.30;1723771;83;21181;-65
2021/01/26 01:13:14;;;;;;;4.33;3.08;;;;;;;1.35;73.05;96600.62;1723975;83;21271;-65
2021/01/26 01:15:42;;;;;;;5.12;3.62;;;;;;;1.39;72.69;96594.34;1723686;83;21137;-64
2021/01/26 01:18:10;;;;;;;5.97;3.90;;;;;;;1.38;72.96;96592.70;1723743;83;21212;-63
2021/01/26 01:20:39;;;;;;;4.10;3.00;;;;;;;1.40;72.65;96578.52;1724019;83;21170;-66
2021/01/26 01:23:09;;;;;;;8.53;4.12;;;;;;;1.43;72.53;96584.67;1724159;82;21201;-64
2021/01/26 01:25:37;;;;;;;6.55;2.92;;;;;;;1.23;73.86;96582.39;1724481;82;21244;-68
2021/01/26 01:28:05;;;;;;;4.37;3.35;;;;;;;1.25;73.81;96570.74;1724271;83;21224;-65
2021/01/26 01:30:35;;;;;;;5.92;3.83;;;;;;;1.18;74.24;96571.69;1724269;82;21193;-65
2021/01/26 01:33:05;;;;;;;5.92;3.37;;;;;;;1.17;74.23;96563.67;1723943;82;21196;-67
2021/01/26 01:35:35;;;;;;;6.22;3.12;;;;;;;1.24;73.69;96571.70;1724128;82;21177;-65
2021/01/26 01:38:03;;;;;;;6.55;3.72;;;;;;;1.23;73.99;96562.39;1724166;83;21169;-66
2021/01/26 01:40:34;;;;;;;5.47;3.33;;;;;;;1.24;74.01;96558.91;1724046;82;21137;-64
2021/01/26 01:43:03;;;;;;;8.75;3.80;;;;;;;1.25;74.25;96560.52;1724028;83;21156;-65
2021/01/26 01:45:31;;;;;;;6.80;3.75;;;;;;;1.25;73.98;96557.49;1724165;83;21193;-65
2021/01/26 01:48:28;;;;;;;4.33;2.52;;;;;;;1.31;73.64;96555.75;1724182;83;21252;-62
2021/01/26 01:51:09;;;;;;;7.28;4.70;;;;;;;1.38;73.40;96554.33;1619946;87;21621;-63
2021/01/26 01:53:55;;;;;;;3.33;2.83;;;;;;;1.43;73.19;96548.40;1620383;87;21671;-66
2021/01/26 01:56:59;;;;;;;4.10;3.58;;;;;;;1.47;73.25;96554.08;1581152;87;21639;-64
2021/01/26 01:59:32;;;;;;;8.03;3.92;;;;;;;1.47;73.49;96550.70;1638974;87;21228;-63
2021/01/26 02:02:04;;;;;;;5.08;3.02;;;;;;;1.41;73.79;96546.88;1638957;86;21206;-63
2021/01/26 02:04:34;;;;;;;5.37;3.00;;;;;;;1.40;73.52;96546.55;1639116;87;21151;-63
2021/01/26 02:07:04;;;;;;;5.42;3.60;;;;;;;1.44;73.39;96545.34;1617092;87;21245;-63
2021/01/26 02:09:36;;;;;;;5.00;3.35;;;;;;;1.47;73.33;96545.12;1639052;86;21230;-63
2021/01/26 02:12:28;;;;;;;5.60;3.80;;;;;;;1.51;73.44;96549.53;1639236;87;21198;-63
2021/01/26 02:14:58;;;;;;;4.25;3.10;;;;;;;1.44;73.65;96548.72;1596670;88;21199;-63
2021/01/26 02:17:43;;;;;;;6.08;3.55;;;;;;;1.40;73.68;96562.69;1596643;89;21262;-63
2021/01/26 02:20:34;;;;;;;5.17;4.05;;;;;;;1.38;73.66;96567.12;1596152;89;21190;-63
2021/01/26 02:23:44;;;;;;;4.05;3.15;;;;;;;1.31;73.93;96579.23;1596976;89;21179;-65
2021/01/26 02:27:03;;;;;;;3.25;2.95;;;;;;;1.32;74.00;96598.77;1600318;88;21159;-66
2021/01/26 02:29:48;;;;;;;3.65;2.85;;;;;;;1.27;73.91;96602.95;1596347;88;21179;-63
2021/01/26 02:32:28;;;;;;;4.45;2.65;;;;;;;1.24;73.98;96607.03;1557889;89;21230;-62
2021/01/26 02:35:17;;;;;;;4.95;3.00;;;;;;;1.21;74.35;96614.92;1573775;90;21587;-63
2021/01/26 02:38:23;;;;;;;5.42;3.98;;;;;;;1.27;73.98;96604.70;1600717;87;21205;-64
2021/01/26 02:41:23;;;;;;;4.30;2.50;;;;;;;1.31;73.67;96605.62;1600170;87;21193;-63
2021/01/26 02:44:18;;;;;;;6.05;3.40;;;;;;;1.32;73.53;96607.22;1588948;89;21636;-74
2021/01/26 02:46:53;;;;;;;4.75;2.95;;;;;;;1.34;73.70;96598.17;1588623;90;21753;-63
2021/01/26 02:49:57;;;;;;;4.08;2.72;;;;;;;1.37;73.33;96597.46;1588964;89;21408;-63
2021/01/26 02:53:21;;;;;;;4.95;2.50;;;;;;;1.38;73.25;96596.53;1588675;90;21616;-62
2021/01/26 02:56:16;;;;;;;5.60;2.77;;;;;;;1.39;73.54;96590.96;1588789;90;21201;-63
2021/01/26 02:59:04;;;;;;;4.33;3.15;;;;;;;1.22;74.48;96597.38;1587381;90;21197;-64
2021/01/26 03:01:37;;;;;;;5.78;3.55;;;;;;;1.27;74.39;96604.23;1588953;89;21257;-65
2021/01/26 03:04:11;;;;;;;3.37;2.17;;;;;;;1.28;74.22;96602.03;1588655;90;21198;-64
2021/01/26 03:06:43;;;;;;;4.15;3.17;;;;;;;1.35;73.94;96610.84;1588457;90;21248;-64
2021/01/26 03:09:26;;;;;;;6.40;3.00;;;;;;;1.43;73.80;96610.25;1588734;90;21208;-65
2021/01/26 03:11:58;;;;;;;6.17;2.80;;;;;;;1.44;73.50;96616.51;1588691;89;21398;-65
2021/01/26 03:14:41;;;;;;;3.80;2.75;;;;;;;1.44;73.42;96620.34;1588628;90;21776;-64
2021/01/26 03:23:20;;;;;;;8.00;3.67;;;;;;;1.64;73.18;96631.58;1712057;83;21199;-64
2021/01/26 03:25:52;;;;;;;6.00;3.87;;;;;;;1.69;73.05;96629.48;1735461;83;21151;-64
2021/01/26 03:28:24;;;;;;;8.25;4.20;;;;;;;1.69;73.21;96637.63;1735143;83;21150;-64
2021/01/26 03:31:14;;;;;;;5.00;4.37;;;;;;;1.61;73.53;96640.79;1735110;83;21151;-63
2021/01/26 03:33:49;;;;;;;7.17;4.22;;;;;;;1.55;73.77;96643.02;1684277;85;21285;-63
2021/01/26 03:36:17;;;;;;;6.83;3.83;;;;;;;1.54;73.91;96647.78;1658914;84;21193;-63
2021/01/26 03:38:54;;;;;;;6.70;4.50;;;;;;;1.54;73.91;96643.95;1658298;84;24998;-66
2021/01/26 03:41:22;;;;;;;5.60;3.72;;;;;;;1.50;74.28;96641.28;1684450;84;21760;-69
2021/01/26 03:43:52;;;;;;;4.22;3.65;;;;;;;1.51;74.07;96640.35;1684463;84;21200;-62
2021/01/26 03:46:48;;;;;;;7.35;3.70;;;;;;;1.51;73.94;96642.45;1684203;84;21153;-62
2021/01/26 03:49:42;;;;;;;6.55;4.08;;;;;;;1.53;74.19;96652.08;1681288;84;21201;-63
2021/01/26 03:52:44;;;;;;;5.53;3.70;;;;;;;1.51;74.18;96658.27;1684014;84;21165;-62
2021/01/26 03:56:00;;;;;;;7.55;4.33;;;;;;;1.52;73.91;96655.56;1650022;84;21142;-63
2021/01/26 03:59:00;;;;;;;7.62;4.17;;;;;;;1.59;73.74;96654.64;1684077;84;21724;-63
2021/01/26 04:01:55;;;;;;;6.42;4.37;;;;;;;1.61;73.57;96660.44;1684156;84;21314;-63
2021/01/26 04:04:46;;;;;;;5.85;3.70;;;;;;;1.65;73.48;96656.25;1683743;84;21189;-63
2021/01/26 04:07:32;;;;;;;8.43;4.15;;;;;;;1.70;73.36;96659.27;1684349;84;21232;-64
2021/01/26 04:10:08;;;;;;;6.42;4.78;;;;;;;1.76;73.21;96669.02;1671896;84;21174;-65
2021/01/26 04:12:40;;;;;;;6.95;3.75;;;;;;;1.81;73.00;96668.66;1683721;84;21749;-62
2021/01/26 04:15:18;;;;;;;8.65;5.30;;;;;;;1.83;72.80;96664.22;1684371;84;21172;-63
2021/01/26 04:17:51;;;;;;;7.85;4.30;;;;;;;1.85;72.59;96668.30;1684345;84;21161;-63
2021/01/26 04:20:34;;;;;;;7.40;4.17;;;;;;;1.87;72.40;96674.56;1684218;84;21193;-65
2021/01/26 04:23:04;;;;;;;7.22;4.00;;;;;;;1.85;72.45;96664.93;1684306;84;21335;-65
2021/01/26 04:25:45;;;;;;;8.20;5.17;;;;;;;1.84;72.56;96659.45;1659011;84;21180;-64
2021/01/26 04:31:12;;;;;;;8.83;5.30;;;;;;;1.86;72.68;96672.50;1639950;85;21207;-65
2021/01/26 04:33:42;;;;;;;6.78;4.92;;;;;;;1.87;72.80;96678.41;1649880;86;21334;-72
2021/01/26 04:36:15;;;;;;;7.97;4.95;;;;;;;1.84;73.21;96684.59;1649627;86;21238;-65
2021/01/26 04:38:44;;;;;;;8.18;5.62;;;;;;;1.82;73.33;96686.94;1649467;86;21206;-64
2021/01/26 04:41:21;;;;;;;4.95;4.12;;;;;;;1.81;73.34;96689.95;1649295;86;21236;-64
2021/01/26 04:44:21;;;;;;;6.95;4.50;;;;;;;1.81;73.16;96691.23;1649439;86;21183;-63
2021/01/26 04:47:12;;;;;;;7.28;4.60;;;;;;;1.82;73.18;96701.02;1649359;86;21191;-67
2021/01/26 04:50:04;;;;;;;6.33;4.22;;;;;;;1.82;73.28;96712.53;1649457;86;21159;-63
2021/01/26 04:56:06;;;;;;;7.85;5.17;;;;;;;1.77;73.67;96714.63;1651984;84;21159;-64
2021/01/26 04:58:48;;;;;;;7.42;4.58;;;;;;;1.70;73.71;96714.30;1668995;84;21214;-64
2021/01/26 05:01:46;;;;;;;6.45;4.17;;;;;;;1.70;73.71;96717.31;1669237;84;21245;-64
2021/01/26 05:04:28;;;;;;;5.78;4.62;;;;;;;1.70;73.81;96721.16;1668924;84;21619;-64
2021/01/26 05:07:26;;;;;;;8.63;5.78;;;;;;;1.71;73.94;96727.91;1668869;84;21619;-64
2021/01/26 05:10:02;;;;;;;6.58;4.97;;;;;;;1.67;74.17;96725.23;1710850;83;21149;-64
2021/01/26 05:12:47;;;;;;;10.38;4.75;;;;;;;1.66;74.69;96729.53;1708802;83;21320;-63
2021/01/26 05:15:20;;;;;;;9.85;4.65;;;;;;;1.59;74.82;96733.97;1708751;83;21399;-63
2021/01/26 05:18:17;;;;;;;8.80;5.78;;;;;;;1.50;76.22;96733.38;1708739;84;21304;-64
2021/01/26 05:20:51;;;;;;;5.75;4.75;;;;;;;1.41;76.87;96740.00;1696460;83;21222;-65
2021/01/26 05:23:24;;;;;;;5.72;4.17;;;;;;;1.37;76.95;96747.09;1704975;84;21185;-65
2021/01/26 05:25:55;;;;;;;6.50;4.40;;;;;;;1.41;76.75;96747.20;1705292;84;21154;-65
2021/01/26 05:28:23;;;;;;;6.17;4.70;;;;;;;1.41;77.09;96749.77;1704977;83;21169;-64
2021/01/26 05:30:55;;;;;;;10.45;5.30;;;;;;;1.42;76.56;96750.12;1715947;83;21145;-63
2021/01/26 05:33:23;;;;;;;7.87;4.35;;;;;;;1.38;77.07;96756.86;1717785;83;21176;-64
2021/01/26 05:35:57;;;;;;;6.20;4.95;;;;;;;1.39;77.07;96759.31;1715816;83;21167;-63
2021/01/26 05:38:25;;;;;;;6.37;4.80;;;;;;;1.42;76.95;96760.36;1715219;83;21614;-64
2021/01/26 05:40:57;;;;;;;5.05;3.83;;;;;;;1.38;77.23;96760.70;1712988;83;21216;-64
2021/01/26 05:43:34;;;;;;;5.58;4.53;;;;;;;1.43;76.89;96767.11;1716224;83;21561;-63
2021/01/26 05:46:06;;;;;;;5.42;4.40;;;;;;;1.51;77.06;96774.66;1715289;83;21179;-63
2021/01/26 05:49:05;;;;;;;7.62;5.00;;;;;;;1.57;77.24;96771.63;1728243;83;21235;-64
2021/01/26 05:51:57;;;;;;;6.35;4.53;;;;;;;1.59;77.15;96771.06;1631420;87;21965;-63
2021/01/26 05:54:25;;;;;;;5.90;4.33;;;;;;;1.64;76.90;96774.88;1635952;87;21242;-64
2021/01/26 05:56:56;;;;;;;7.55;4.33;;;;;;;1.70;76.46;96778.27;1635995;88;21221;-65
2021/01/26 05:59:29;;;;;;;6.65;5.75;;;;;;;1.77;76.11;96781.98;1636436;87;21231;-63
2021/01/26 06:02:22;;;;;;;12.73;5.47;;;;;;;1.80;76.27;96783.02;1632373;87;21151;-64
2021/01/26 06:04:51;;;;;;;9.63;5.70;;;;;;;1.72;76.16;96793.03;1640852;87;21184;-65
2021/01/26 06:07:28;;;;;;;9.20;5.72;;;;;;;1.70;76.26;96790.25;1640585;87;21214;-65
2021/01/26 06:09:56;;;;;;;12.13;6.90;;;;;;;1.66;77.00;96802.93;1640688;87;21171;-65
2021/01/26 06:12:27;;;;;;;12.58;6.60;;;;;;;1.58;77.35;96803.51;1635065;86;21638;-64
2021/01/26 06:15:01;;;;;;;11.60;6.70;;;;;;;1.47;77.79;96811.64;1634581;88;21765;-65
2021/01/26 06:17:34;;;;;;;13.25;6.40;;;;;;;1.43;77.43;96814.43;1645949;86;21193;-65
2021/01/26 06:20:17;;;;;;;10.43;6.70;;;;;;;1.29;78.42;96826.59;1646979;87;21238;-66
2021/01/26 06:23:31;;;;;;;10.50;5.28;;;;;;;1.30;78.12;96826.48;1856410;77;23049;-65
2021/01/26 06:26:04;;;;;;;14.53;7.17;;;;;;;1.25;77.64;96828.56;1827288;78;21176;-65
2021/01/26 06:28:56;;;;;;;9.53;5.22;;;;;;;1.14;77.80;96809.83;1811263;78;21156;-66
2021/01/26 06:32:19;;;;;;;7.15;3.75;;;;;;;1.26;77.55;96830.66;1805683;78;21272;-66
2021/01/26 06:35:15;;;;;;;4.67;2.15;;;;;;;1.30;76.90;96821.38;1805066;79;21146;-65
2021/01/26 06:38:31;;;;;;;5.65;3.87;;;;;;;1.44;76.26;96831.84;1818964;79;23014;-67
2021/01/26 06:41:07;;;;;;;5.40;3.33;;;;;;;1.43;75.76;96841.75;1780946;80;21269;-65
2021/01/26 06:47:50;;;;;;;4.90;3.62;;;;;;;1.51;75.46;96855.25;1706884;84;22022;-67
2021/01/26 06:54:08;;;;;;;44.13;23.73;;;;;;;1.57;75.22;96868.86;1705974;83;21608;-64
2021/01/26 06:57:07;;;;;;;34.23;19.70;;;;;;;1.62;75.41;96870.63;1706644;83;21265;-70
2021/01/26 07:00:04;;;;;;;7.15;3.10;;;;;;;1.68;75.40;96876.09;1705648;83;21147;-70
2021/01/26 07:03:07;;;;;;;2.55;2.30;;;;;;;1.78;76.68;96867.27;1706704;83;21195;-70
2021/01/26 07:05:58;;;;;;;7.30;5.05;;;;;;;1.83;76.27;96870.27;1706027;83;21654;-70
2021/01/26 07:08:37;;;;;;;4.35;2.85;;;;;;;1.80;76.17;96870.52;1708281;83;21587;-69
2021/01/26 07:11:38;;;;;;;5.25;3.58;;;;;;;1.75;75.96;96877.75;1706748;83;21572;-71
2021/01/26 07:14:29;;;;;;;6.33;4.10;;;;;;;1.85;77.33;96878.67;1798311;80;21699;-69
2021/01/26 07:17:05;;;;;;;4.80;3.20;;;;;;;2.02;76.98;96883.34;1797794;80;21138;-69
2021/01/26 07:20:19;;;;;;;6.27;3.67;;;;;;;2.09;75.85;96879.38;1798223;80;21181;-69
2021/01/26 07:23:36;;;;;;;3.85;2.40;;;;;;;2.22;75.75;96889.02;1798144;80;21401;-66
2021/01/26 07:27:01;;;;;;;10.72;3.27;;;;;;;2.37;75.34;96893.45;1797929;80;21139;-65
2021/01/26 07:29:57;;;;;;;6.42;2.70;;;;;;;2.35;73.86;96894.02;1697678;84;21684;-65
2021/01/26 07:32:58;;;;;;;6.17;2.65;;;;;;;2.32;73.19;96896.83;1697135;83;21168;-66
2021/01/26 07:36:01;;;;;;;7.25;3.98;;;;;;;2.26;73.38;96899.38;1750378;82;21134;-66
2021/01/26 07:39:13;;;;;;;5.40;3.30;;;;;;;2.19;73.99;96901.25;1750293;81;21157;-66
2021/01/26 07:42:08;;;;;;;4.17;2.27;;;;;;;2.13;74.86;96903.83;1806779;79;21619;-65
2021/01/26 07:45:20;;;;;;;4.78;3.42;;;;;;;2.05;74.90;96911.28;1808153;79;21202;-65
2021/01/26 07:48:15;;;;;;;4.28;2.95;;;;;;;2.04;74.79;96916.50;1747518;81;21167;-64
2021/01/26 07:50:50;;;;;;;5.58;2.40;;;;;;;1.91;74.83;96922.53;1776181;81;21693;-64
2021/01/26 07:53:29;;;;;;;4.05;2.62;;;;;;;1.75;75.72;96927.66;1776372;81;21167;-64
2021/01/26 07:56:37;;;;;;;4.10;2.90;;;;;;;1.75;75.84;96932.28;1776336;81;21162;-65
2021/01/26 08:02:03;;;;;;;8.03;5.58;;;;;;;1.60;77.08;96942.83;1761011;80;21548;-65
2021/01/26 08:04:44;;;;;;;4.33;3.15;;;;;;;1.54;77.45;96949.23;1761892;80;21163;-65
2021/01/26 08:07:28;;;;;;;6.00;2.72;;;;;;;1.54;77.55;96949.69;1762319;80;21138;-65
2021/01/26 08:10:03;;;;;;;6.35;4.05;;;;;;;1.62;76.95;96957.63;1762023;81;21567;-65
2021/01/26 08:12:37;;;;;;;;;;;;;;;1.56;77.82;96961.43;1764783;81;21138;-64
2021/01/26 08:15:16;;;;;;;2.17;1.98;;;;;;;1.47;77.66;96957.46;1762855;80;20167;-65
2021/01/26 08:17:46;;;;;;;5.03;3.25;;;;;;;1.56;77.29;96965.27;1762588;80;21147;-64
2021/01/26 08:26:18;;;;;;;5.03;2.87;;;;;;;1.58;77.26;96980.52;1758299;81;21151;-65
2021/01/26 08:28:48;;;;;;;4.53;2.42;;;;;;;1.57;77.09;96975.05;1758738;81;21171;-64
2021/01/26 08:31:31;;;;;;;4.92;2.72;;;;;;;1.41;77.47;96982.55;1758116;81;21289;-66
2021/01/26 08:34:25;;;;;;;5.55;2.37;;;;;;;1.48;77.40;96980.84;1740093;82;21195;-65
2021/01/26 08:37:12;;;;;;;3.75;2.62;;;;;;;1.44;77.36;96981.05;1702482;84;21424;-64
2021/01/26 08:39:45;;;;;;;4.60;2.60;;;;;;;1.46;77.28;96980.95;1693479;85;21552;-65
2021/01/26 08:42:56;;;;;;;5.15;2.55;;;;;;;1.47;77.01;96977.92;1708350;84;21169;-64
2021/01/26 08:45:32;;;;;;;3.77;2.65;;;;;;;1.53;76.76;96984.69;1605722;89;21208;-64
2021/01/26 08:48:09;;;;;;;4.30;2.40;;;;;;;1.54;76.76;96978.66;1639887;87;21608;-65
2021/01/26 08:50:56;;;;;;;4.92;2.72;;;;;;;1.53;76.86;96961.66;1639658;87;21208;-65
2021/01/26 08:53:35;;;;;;;4.47;2.58;;;;;;;1.78;76.36;96990.95;1650502;86;21612;-64
2021/01/26 08:59:12;;;;;;;2.60;2.15;;;;;;;2.00;74.83;96978.65;1736951;82;21174;-66
2021/01/26 09:01:46;;;;;;;8.38;3.45;;;;;;;2.13;74.34;96975.54;1744088;82;21618;-66
2021/01/26 09:04:23;;;;;;;12.23;4.87;;;;;;;2.25;74.46;96968.22;1733430;82;21589;-65
2021/01/26 09:06:58;;;;;;;5.20;2.58;;;;;;;2.42;74.00;96968.66;1732800;82;22327;-66
2021/01/26 09:09:33;;;;;;;8.80;3.00;;;;;;;2.61;73.31;96968.89;1739169;81;21654;-65
2021/01/26 09:12:07;;;;;;;7.60;3.65;;;;;;;2.80;72.33;96981.95;1738346;82;21229;-66
2021/01/26 09:14:50;;;;;;;4.45;2.67;;;;;;;3.03;71.71;96971.18;1737908;82;21179;-66
2021/01/26 09:17:35;;;;;;;5.42;2.87;;;;;;;3.21;70.64;96968.44;1732562;82;21200;-67
2021/01/26 09:20:16;;;;;;;3.05;1.67;;;;;;;3.39;70.56;96977.69;1737544;82;21253;-65
2021/01/26 09:22:49;;;;;;;4.80;2.27;;;;;;;3.47;67.66;96976.61;1729039;82;21158;-66
2021/01/26 09:25:25;;;;;;;4.42;2.20;;;;;;;3.60;67.81;96973.42;1737868;82;21183;-67
2021/01/26 09:28:02;;;;;;;3.42;2.22;;;;;;;3.71;68.14;96978.03;1734692;82;21175;-66
2021/01/26 09:30:31;;;;;;;3.00;1.42;;;;;;;3.78;65.90;96979.62;1738840;82;21153;-66
2021/01/26 09:33:11;;;;;;;4.22;2.12;;;;;;;3.90;68.11;96977.34;1742434;82;21173;-67
2021/01/26 09:35:48;;;;;;;3.40;2.02;;;;;;;3.99;67.01;96984.78;1742336;82;21152;-66
2021/01/26 09:38:44;;;;;;;3.22;1.85;;;;;;;4.11;66.98;96979.92;1741345;82;21158;-66
2021/01/26 09:41:28;;;;;;;4.58;2.37;;;;;;;4.24;65.80;96978.76;1654851;85;21226;-67
2021/01/26 09:44:11;;;;;;;3.00;2.02;;;;;;;4.34;66.32;96978.00;1680980;85;21312;-67
2021/01/26 09:46:46;;;;;;;3.80;2.17;;;;;;;4.42;64.77;96982.03;1680744;85;21295;-67
2021/01/26 09:49:26;;;;;;;5.47;1.72;;;;;;;4.52;64.50;96985.45;1681175;85;21233;-67
2021/01/26 09:52:08;;;;;;;2.75;2.00;;;;;;;4.61;63.45;96984.22;1706358;84;21627;-68
2021/01/26 09:54:41;;;;;;;3.37;2.15;;;;;;;4.68;63.64;96984.50;1709881;84;21190;-68
2021/01/26 09:57:17;;;;;;;2.08;1.40;;;;;;;4.77;63.87;96986.30;1695860;84;21157;-70
2021/01/26 09:59:46;;;;;;;4.22;2.60;;;;;;;4.90;63.92;96991.23;1690996;84;21185;-69
2021/01/26 10:02:17;;;;;;;2.72;1.55;;;;;;;5.00;59.94;96986.44;1680263;84;21197;-70
2021/01/26 10:04:47;;;;;;;5.10;2.22;;;;;;;5.46;62.39;96976.00;1695743;84;21645;-69
2021/01/26 10:07:18;;;;;;;3.08;1.95;;;;;;;5.88;59.00;96988.14;1687229;84;21514;-70
2021/01/26 10:09:48;;;;;;;4.70;2.55;;;;;;;6.20;54.99;96970.60;1694096;84;21228;-68
2021/01/26 10:12:55;;;;;;;5.15;2.67;;;;;;;6.61;55.14;96965.02;1653745;86;21181;-66
2021/01/26 10:15:39;;;;;;;7.30;2.67;;;;;;;7.06;51.35;96970.25;1690997;83;21583;-66
2021/01/26 10:18:16;;;;;;;4.45;2.15;;;;;;;7.60;53.99;96969.80;1689806;83;21139;-67
2021/01/26 10:20:50;;;;;;;5.30;2.50;;;;;;;8.00;56.66;96969.33;1690797;85;21638;-68
2021/01/26 10:23:40;;;;;;;4.62;2.77;;;;;;;8.10;51.75;96981.19;1695432;84;21135;-67
2021/01/26 10:29:12;;;;;;;3.65;2.42;;;;;;;7.92;55.65;96977.02;1678016;84;21210;-67
2021/01/26 10:31:58;;;;;;;4.28;2.00;;;;;;;7.84;52.05;96972.59;1679498;85;21169;-66
2021/01/26 10:34:43;;;;;;;3.45;2.10;;;;;;;7.67;47.82;96973.41;1651145;85;21206;-66
2021/01/26 10:37:26;;;;;;;2.92;2.15;;;;;;;8.02;51.34;96970.78;1679571;85;21147;-66
2021/01/26 10:43:23;;;;;;;2.87;1.60;;;;;;;7.85;51.34;96976.00;1693119;84;21272;-66
2021/01/26 10:45:53;;;;;;;2.83;1.77;;;;;;;7.52;50.65;96972.31;1685296;84;21297;-66
2021/01/26 10:48:31;;;;;;;2.05;1.45;;;;;;;7.32;52.65;96986.31;1637451;87;21179;-66
2021/01/26 10:51:31;;;;;;;7.70;1.50;;;;;;;7.10;54.13;96984.49;1684409;85;21171;-66
2021/01/26 10:54:01;;;;;;;2.40;1.42;;;;;;;6.86;49.72;96986.78;1610084;87;21227;-66
2021/01/26 10:56:30;;;;;;;2.92;1.67;;;;;;;6.61;51.82;96990.82;1641021;86;21195;-66
2021/01/26 10:58:58;;;;;;;2.00;1.10;;;;;;;6.52;53.99;96985.71;1641157;86;21600;-67
2021/01/26 11:01:27;;;;;;;3.50;1.10;;;;;;;6.41;52.69;96992.34;1641245;87;21764;-68
2021/01/26 11:03:57;;;;;;;3.05;1.57;;;;;;;6.23;52.06;96990.94;1640946;86;21179;-66
2021/01/26 11:06:26;;;;;;;3.98;1.90;;;;;;;5.96;48.03;96992.14;1641148;86;21198;-66
2021/01/26 11:08:55;;;;;;;3.17;1.77;;;;;;;5.71;49.45;96996.89;1641242;87;21211;-67
2021/01/26 11:11:27;;;;;;;4.83;1.82;;;;;;;5.68;53.00;96994.56;1640664;86;21183;-67
2021/01/26 11:13:58;;;;;;;3.85;1.80;;;;;;;5.60;51.64;96998.29;1665820;86;21641;-67
2021/01/26 11:16:27;;;;;;;6.33;3.42;;;;;;;5.55;52.30;96994.52;1677718;85;21233;-66
2021/01/26 11:18:56;;;;;;;40.98;19.50;;;;;;;5.57;54.58;96996.47;1666343;85;21597;-66
2021/01/26 11:21:25;;;;;;;38.08;17.85;;;;;;;5.62;52.51;96998.17;1677961;85;21212;-73
2021/01/26 11:23:55;;;;;;;6.70;3.80;;;;;;;5.61;51.10;96993.48;1666577;85;21185;-68
2021/01/26 11:26:24;;;;;;;4.87;2.83;;;;;;;5.64;53.52;96997.08;1666296;85;21598;-69
2021/01/26 11:28:52;;;;;;;3.42;2.45;;;;;;;5.55;52.94;96994.05;1677945;85;21627;-70
2021/01/26 11:31:21;;;;;;;6.37;1.72;;;;;;;5.47;53.16;96990.50;1666353;86;21225;-69
2021/01/26 11:33:49;;;;;;;3.70;1.65;;;;;;;5.36;55.08;96995.78;1678025;85;21191;-69
2021/01/26 11:36:17;;;;;;;2.42;1.72;;;;;;;5.24;54.18;97000.23;1666612;86;21232;-70
2021/01/26 11:38:46;;;;;;;2.22;1.67;;;;;;;5.14;53.52;96993.77;1678196;85;21227;-69
2021/01/26 11:41:14;;;;;;;6.45;2.55;;;;;;;5.10;54.99;96991.59;1666419;85;21241;-67
2021/01/26 11:43:43;;;;;;;3.05;1.82;;;;;;;5.07;54.09;96988.82;1678267;85;21228;-69
2021/01/26 11:46:12;;;;;;;3.25;1.90;;;;;;;5.09;55.25;96992.56;1666383;86;21248;-69
2021/01/26 11:48:42;;;;;;;2.58;1.67;;;;;;;5.09;54.38;96985.66;1678121;85;21215;-68
2021/01/26 11:51:11;;;;;;;5.87;1.90;;;;;;;5.10;55.24;96984.69;1666265;85;21502;-68
2021/01/26 11:53:39;;;;;;;3.12;1.30;;;;;;;5.12;54.43;96982.00;1659830;85;21225;-68
2021/01/26 11:56:08;;;;;;;4.28;1.47;;;;;;;5.08;54.57;96980.63;1634378;85;21214;-68
2021/01/26 11:58:36;;;;;;;4.03;1.42;;;;;;;5.02;54.89;96985.82;1642511;87;21225;-68
2021/01/26 12:01:05;;;;;;;3.17;1.80;;;;;;;4.93;54.60;96985.34;1630806;86;21266;-67
2021/01/26 12:03:34;;;;;;;2.25;1.55;;;;;;;4.87;55.38;96990.18;1658156;84;21237;-68
2021/01/26 12:06:25;;;;;;;2.92;1.45;;;;;;;4.77;54.52;96983.73;1619371;88;21230;-68
2021/01/26 12:08:54;;;;;;;3.58;1.57;;;;;;;4.68;55.24;96985.79;1718982;83;21187;-68
2021/01/26 12:11:22;;;;;;;3.75;1.82;;;;;;;4.57;55.59;96983.31;1718990;83;21222;-69
2021/01/26 12:13:50;;;;;;;1.67;1.22;;;;;;;4.53;55.46;96984.52;1719177;83;21218;-67
2021/01/26 12:16:18;;;;;;;3.60;1.40;;;;;;;4.47;55.05;96983.30;1719173;83;21170;-66
2021/01/26 12:18:46;;;;;;;2.92;1.20;;;;;;;4.40;53.49;96994.22;1719297;83;21637;-64
2021/01/26 12:21:15;;;;;;;3.35;1.70;;;;;;;4.37;54.50;96986.27;1691632;85;21197;-66
2021/01/26 12:23:48;;;;;;;24.95;11.20;;;;;;;4.36;55.69;96984.64;1679463;85;21585;-66
2021/01/26 12:26:13;;;;;;;37.33;17.82;;;;;;;4.35;57.64;96984.78;1691795;83;21283;-66
2021/01/26 12:28:44;;;;;;;10.55;5.40;;;;;;;4.33;57.27;96989.22;1691855;84;21269;-66
2021/01/26 12:31:14;;;;;;;3.72;2.77;;;;;;;4.22;56.30;96979.38;1691752;85;21725;-66
2021/01/26 12:33:43;;;;;;;3.37;1.87;;;;;;;4.21;55.97;96978.20;1679479;85;21202;-66
2021/01/26 12:36:11;;;;;;;2.10;1.42;;;;;;;4.17;56.74;96982.78;1692369;83;21645;-66
2021/01/26 12:38:39;;;;;;;3.50;1.95;;;;;;;4.12;56.13;96980.27;1716642;83;21217;-66
2021/01/26 12:41:08;;;;;;;6.97;2.62;;;;;;;4.10;57.55;96983.42;1721055;83;21228;-66
2021/01/26 12:43:36;;;;;;;2.92;1.57;;;;;;;4.06;56.24;96977.72;1721084;83;21222;-68
2021/01/26 12:46:04;;;;;;;4.10;1.80;;;;;;;4.07;56.50;96975.50;1720837;83;21259;-66
2021/01/26 12:48:32;;;;;;;3.35;1.72;;;;;;;4.06;55.79;96981.58;1721210;83;21255;-66
2021/01/26 12:51:01;;;;;;;2.25;1.27;;;;;;;4.06;56.61;96976.44;1720966;83;21180;-66
2021/01/26 12:53:29;;;;;;;3.70;1.25;;;;;;;4.05;56.33;96983.80;1720900;83;21169;-68
2021/01/26 12:55:58;;;;;;;3.52;1.98;;;;;;;4.07;55.97;96981.92;1720921;83;21596;-66
2021/01/26 12:58:26;;;;;;;2.77;1.07;;;;;;;4.08;56.42;96984.84;1720756;83;21606;-66
2021/01/26 13:00:55;;;;;;;3.30;1.62;;;;;;;4.07;56.29;96981.92;1720976;83;21160;-66
2021/01/26 13:03:23;;;;;;;2.12;1.42;;;;;;;4.09;56.35;96983.06;1720943;83;21594;-66
2021/01/26 13:05:51;;;;;;;2.42;1.00;;;;;;;4.07;55.18;96989.64;1721060;83;21173;-66
2021/01/26 13:08:19;;;;;;;2.70;1.22;;;;;;;4.11;55.44;96987.62;1714331;82;21586;-66
2021/01/26 13:10:48;;;;;;;2.27;1.12;;;;;;;4.13;55.81;96994.25;1704911;83;21167;-70
2021/01/26 13:13:16;;;;;;;2.55;1.27;;;;;;;4.12;54.85;96995.22;1711051;84;21294;-67